Time;durP1;ratioP1;P1;durP2;ratioP2;P2;SDS_P1;SDS_P2;PMS_P1;PMS_P2;Temp;Humidity;BMP_temperature;BMP_pressure;BME280_temperature;BME280_humidity;BME280_pressure;Samples;Min_cycle;Max_cycle;Signal;HPM_P1;HPM_P2
2021/01/16 00:01:06;;;;;;;27.98;16.15;;;;;;;-9.19;66.97;99939.61;1830771;78;21385;-52
2021/01/16 00:03:33;;;;;;;34.58;18.73;;;;;;;-9.20;67.22;99945.44;1833909;78;20963;-50
2021/01/16 00:06:03;;;;;;;28.62;17.55;;;;;;;-9.17;67.21;99947.78;1832030;78;21019;-50
2021/01/16 00:11:08;;;;;;;32.85;19.80;;;;;;;-9.10;66.93;99944.83;1888876;76;28229;-51
2021/01/16 00:13:36;;;;;;;30.55;17.70;;;;;;;-9.11;67.10;99945.81;1859801;77;21017;-50
2021/01/16 00:16:05;;;;;;;30.50;18.77;;;;;;;-9.05;67.18;99945.17;1859789;77;21121;-51
2021/01/16 00:18:33;;;;;;;32.05;20.43;;;;;;;-9.04;67.22;99944.19;1859773;77;20995;-51
2021/01/16 00:21:00;;;;;;;30.23;19.20;;;;;;;-9.02;67.18;99945.87;1859454;77;20970;-51
2021/01/16 00:23:36;;;;;;;32.85;18.98;;;;;;;-8.99;67.24;99950.88;1859960;77;21001;-51
2021/01/16 00:26:04;;;;;;;32.95;21.20;;;;;;;-8.98;67.08;99951.22;1859761;77;21033;-51
2021/01/16 00:28:32;;;;;;;29.30;18.52;;;;;;;-8.98;67.04;99953.88;1859689;77;22201;-50
2021/01/16 00:31:02;;;;;;;28.47;18.02;;;;;;;-9.00;66.91;99953.19;1859775;77;21603;-51
2021/01/16 00:33:32;;;;;;;33.58;18.65;;;;;;;-9.06;66.81;99948.85;1859559;77;21584;-51
2021/01/16 00:36:01;;;;;;;30.05;18.30;;;;;;;-9.13;67.03;99955.80;1859849;77;21001;-51
2021/01/16 00:38:30;;;;;;;25.00;16.02;;;;;;;-9.18;66.94;99954.09;1859503;77;20989;-51
2021/01/16 00:40:57;;;;;;;27.40;18.00;;;;;;;-9.24;66.81;99962.20;1859905;77;21194;-50
2021/01/16 00:43:24;;;;;;;25.65;17.48;;;;;;;-9.31;66.79;99953.17;1827434;77;20945;-51
2021/01/16 00:45:52;;;;;;;24.50;15.78;;;;;;;-9.33;66.79;99948.99;1825947;78;21049;-51
2021/01/16 00:48:23;;;;;;;23.77;15.32;;;;;;;-9.35;66.83;99956.31;1825872;78;21100;-51
2021/01/16 00:50:53;;;;;;;23.30;15.58;;;;;;;-9.34;67.03;99951.30;1825951;78;21056;-52
2021/01/16 00:53:23;;;;;;;26.93;15.65;;;;;;;-9.36;67.00;99954.63;1825892;78;21265;-51
2021/01/16 00:55:56;;;;;;;22.58;14.63;;;;;;;-9.42;66.83;99958.23;1824918;78;21031;-51
2021/01/16 00:58:29;;;;;;;27.58;15.13;;;;;;;-9.44;66.74;99969.54;1826052;78;21025;-51
2021/01/16 01:00:55;;;;;;;25.05;12.60;;;;;;;-9.47;66.81;99966.34;1825243;78;21024;-51
2021/01/16 01:03:25;;;;;;;22.30;14.05;;;;;;;-9.47;66.90;99961.88;1825788;78;21540;-51
2021/01/16 01:05:54;;;;;;;19.92;11.65;;;;;;;-9.48;66.83;99953.55;1825945;78;21252;-51
2021/01/16 01:08:29;;;;;;;19.50;12.78;;;;;;;-9.50;66.71;99963.52;1825860;78;21666;-51
2021/01/16 01:10:57;;;;;;;18.25;12.75;;;;;;;-9.55;66.50;99961.80;1824531;78;21563;-51
2021/01/16 01:13:24;;;;;;;15.83;12.47;;;;;;;-9.57;66.27;99962.47;1823898;78;21017;-50
2021/01/16 01:15:52;;;;;;;17.35;11.73;;;;;;;-9.57;66.10;99956.64;1823805;78;21028;-50
2021/01/16 01:18:20;;;;;;;21.02;13.13;;;;;;;-9.61;66.22;99953.95;1823950;78;21136;-51
2021/01/16 01:20:47;;;;;;;19.85;12.30;;;;;;;-9.62;66.17;99969.55;1823705;78;21029;-51
2021/01/16 01:23:15;;;;;;;19.15;13.08;;;;;;;-9.62;66.32;99958.09;1822986;78;21009;-51
2021/01/16 01:25:43;;;;;;;20.32;12.68;;;;;;;-9.64;66.33;99955.59;1823388;78;21626;-51
2021/01/16 01:28:11;;;;;;;23.18;14.53;;;;;;;-9.65;66.38;99954.42;1823440;78;21247;-51
2021/01/16 01:30:38;;;;;;;20.85;13.38;;;;;;;-9.70;66.19;99947.39;1823455;78;21131;-51
2021/01/16 01:33:15;;;;;;;22.42;13.93;;;;;;;-9.78;66.39;99940.19;1823328;78;21009;-51
2021/01/16 01:35:44;;;;;;;18.15;12.45;;;;;;;-9.78;66.37;99939.69;1823479;78;20973;-51
2021/01/16 01:38:18;;;;;;;18.65;11.83;;;;;;;-9.78;65.93;99944.18;1823183;78;21029;-51
2021/01/16 01:40:47;;;;;;;20.45;12.90;;;;;;;-9.81;65.57;99950.63;1823546;78;20922;-51
2021/01/16 01:43:15;;;;;;;22.02;13.15;;;;;;;-9.87;65.57;99947.27;1823216;77;21191;-51
2021/01/16 01:45:43;;;;;;;18.62;13.15;;;;;;;-9.83;65.75;99945.97;1823254;78;21041;-51
2021/01/16 01:48:11;;;;;;;18.73;12.95;;;;;;;-9.76;65.44;99949.69;1823372;78;21017;-51
2021/01/16 01:50:39;;;;;;;23.50;14.00;;;;;;;-9.70;65.23;99954.89;1823141;78;21544;-51
2021/01/16 01:53:09;;;;;;;19.45;13.68;;;;;;;-9.63;65.12;99959.08;1823247;78;20922;-51
2021/01/16 01:55:37;;;;;;;20.32;13.43;;;;;;;-9.63;64.82;99959.93;1823305;78;21261;-51
2021/01/16 01:58:07;;;;;;;20.85;12.23;;;;;;;-9.61;65.09;99959.77;1793805;78;21032;-51
2021/01/16 02:00:34;;;;;;;20.95;13.70;;;;;;;-9.64;64.99;99956.92;1796149;78;21021;-51
2021/01/16 02:03:02;;;;;;;20.37;13.22;;;;;;;-9.63;64.97;99964.39;1823057;78;21040;-51
2021/01/16 02:05:30;;;;;;;18.82;13.03;;;;;;;-9.66;64.74;99966.03;1823383;78;21026;-51
2021/01/16 02:07:58;;;;;;;17.05;12.30;;;;;;;-9.72;64.81;99966.15;1823444;78;22287;-51
2021/01/16 02:10:26;;;;;;;20.75;12.95;;;;;;;-9.74;64.80;99966.81;1826851;78;22158;-51
2021/01/16 02:12:56;;;;;;;22.58;14.70;;;;;;;-9.82;64.73;99957.43;1831592;78;21024;-51
2021/01/16 02:15:54;;;;;;;18.10;12.47;;;;;;;-9.85;65.05;99961.22;1831356;78;21005;-51
2021/01/16 02:18:41;;;;;;;19.02;13.20;;;;;;;-9.85;65.13;99973.18;1831458;78;20977;-50
2021/01/16 02:21:10;;;;;;;15.35;11.22;;;;;;;-9.89;64.89;99981.11;1831481;78;21187;-51
2021/01/16 02:24:11;;;;;;;17.62;11.75;;;;;;;-9.94;64.58;99980.75;1831174;78;21000;-51
2021/01/16 02:27:19;;;;;;;18.77;13.20;;;;;;;-10.05;64.65;99978.31;1831365;78;21040;-50
2021/01/16 02:29:46;;;;;;;19.17;12.43;;;;;;;-10.10;64.87;99974.28;1831426;78;21262;-51
2021/01/16 02:32:14;;;;;;;18.07;12.25;;;;;;;-10.16;64.94;99974.03;1831392;78;21012;-50
2021/01/16 02:34:42;;;;;;;16.65;12.50;;;;;;;-10.20;64.88;99978.83;1803984;78;21373;-51
2021/01/16 02:37:42;;;;;;;22.15;15.45;;;;;;;-10.23;64.85;99980.43;1831381;78;21013;-51
2021/01/16 02:40:23;;;;;;;25.35;13.75;;;;;;;-10.32;65.05;99981.34;1831321;78;21000;-50
2021/01/16 02:43:07;;;;;;;21.15;14.53;;;;;;;-10.39;65.19;99981.62;1831565;77;20980;-52
2021/01/16 02:45:54;;;;;;;20.68;12.18;;;;;;;-10.37;65.46;99991.12;1830660;78;20973;-50
2021/01/16 02:48:28;;;;;;;33.20;25.50;;;;;;;-10.38;65.19;99986.78;1831567;78;21191;-50
2021/01/16 02:50:56;;;;;;;20.70;14.28;;;;;;;-10.52;65.04;99987.28;1831314;78;21001;-50
2021/01/16 02:53:24;;;;;;;20.27;14.73;;;;;;;-10.67;65.15;99981.61;1831322;78;20984;-50
2021/01/16 02:55:52;;;;;;;19.80;15.43;;;;;;;-10.75;65.34;99984.18;1831414;78;21155;-50
2021/01/16 02:58:20;;;;;;;16.25;12.63;;;;;;;-10.83;65.34;99984.41;1804084;78;21016;-50
2021/01/16 03:00:48;;;;;;;22.52;14.05;;;;;;;-10.83;65.17;99991.05;1831349;78;21566;-50
2021/01/16 03:03:16;;;;;;;18.57;14.13;;;;;;;-10.86;64.95;99988.69;1831160;78;21008;-50
2021/01/16 03:05:44;;;;;;;16.75;12.07;;;;;;;-10.88;64.96;99989.31;1831485;78;21033;-50
2021/01/16 03:08:13;;;;;;;18.45;12.15;;;;;;;-10.86;64.58;99990.49;1831291;78;21029;-50
2021/01/16 03:10:40;;;;;;;17.25;11.75;;;;;;;-10.91;63.91;99988.28;1778675;78;21012;-50
2021/01/16 03:13:07;;;;;;;17.48;12.40;;;;;;;-11.00;63.41;99987.80;1806713;78;21355;-50
2021/01/16 03:15:35;;;;;;;19.95;12.30;;;;;;;-11.06;63.17;99997.17;1834194;78;21032;-50
2021/01/16 03:18:02;;;;;;;20.55;13.30;;;;;;;-11.12;63.38;99997.77;1834105;78;21052;-50
2021/01/16 03:20:31;;;;;;;21.37;12.60;;;;;;;-11.14;63.48;99997.08;1780693;78;21021;-50
2021/01/16 03:23:02;;;;;;;20.55;12.80;;;;;;;-11.13;63.50;99997.41;1834345;78;21001;-50
2021/01/16 03:25:31;;;;;;;18.40;13.43;;;;;;;-11.15;63.58;99996.22;1834189;78;21371;-51
2021/01/16 03:28:02;;;;;;;20.43;14.45;;;;;;;-11.18;63.12;100003.64;1834275;78;20984;-51
2021/01/16 03:30:31;;;;;;;17.82;12.37;;;;;;;-11.24;63.30;100005.52;1834364;78;20968;-51
2021/01/16 03:32:58;;;;;;;26.12;15.88;;;;;;;-11.26;63.22;100011.47;1834047;78;21008;-51
2021/01/16 03:35:26;;;;;;;16.77;12.37;;;;;;;-11.31;62.79;100008.75;1834310;78;20981;-51
2021/01/16 03:38:01;;;;;;;18.42;13.35;;;;;;;-11.41;62.51;100005.28;1834411;78;21185;-51
2021/01/16 03:40:29;;;;;;;16.82;12.53;;;;;;;-11.48;62.59;99998.38;1834148;78;21987;-51
2021/01/16 03:42:56;;;;;;;18.10;13.32;;;;;;;-11.54;62.65;99988.34;1834394;76;20969;-51
2021/01/16 03:45:24;;;;;;;20.37;12.63;;;;;;;-11.62;62.75;99993.51;1834101;78;20977;-51
2021/01/16 03:47:51;;;;;;;19.98;14.03;;;;;;;-11.66;62.84;100001.39;1834311;78;20992;-50
2021/01/16 03:50:24;;;;;;;22.07;13.15;;;;;;;-11.87;63.09;100002.87;1833956;78;21418;-51
2021/01/16 03:52:52;;;;;;;20.08;13.48;;;;;;;-11.96;63.48;100012.98;1834235;78;20965;-50
2021/01/16 03:55:20;;;;;;;19.00;13.10;;;;;;;-11.98;63.53;100013.63;1834295;78;21060;-50
2021/01/16 03:57:47;;;;;;;18.67;13.83;;;;;;;-12.03;63.45;100007.39;1834130;78;20993;-50
2021/01/16 04:00:17;;;;;;;23.47;15.20;;;;;;;-12.12;63.61;100010.38;1834304;78;21012;-50
2021/01/16 04:02:46;;;;;;;24.07;15.00;;;;;;;-12.19;63.61;100008.79;1834214;78;21358;-50
2021/01/16 04:05:14;;;;;;;23.75;15.03;;;;;;;-12.22;64.05;100018.30;1834249;78;20925;-50
2021/01/16 04:07:50;;;;;;;19.50;12.23;;;;;;;-12.24;64.25;100019.44;1834086;78;21119;-50
2021/01/16 04:10:17;;;;;;;21.17;12.90;;;;;;;-12.25;64.48;100011.14;1833042;78;20997;-50
2021/01/16 04:12:45;;;;;;;19.62;14.40;;;;;;;-12.28;64.79;100020.18;1823082;78;21580;-50
2021/01/16 04:15:14;;;;;;;24.65;15.40;;;;;;;-12.27;65.19;100031.13;1823174;78;22258;-50
2021/01/16 04:17:41;;;;;;;21.05;14.38;;;;;;;-12.29;65.14;100037.03;1823177;78;21021;-51
2021/01/16 04:20:10;;;;;;;19.73;13.60;;;;;;;-12.29;65.18;100037.03;1823138;78;21036;-52
2021/01/16 04:22:38;;;;;;;20.92;13.55;;;;;;;-12.35;64.68;100026.98;1823269;78;20993;-51
2021/01/16 04:25:07;;;;;;;17.65;12.55;;;;;;;-12.44;64.60;100042.37;1823204;78;20981;-51
2021/01/16 04:27:34;;;;;;;23.90;15.53;;;;;;;-12.52;64.48;100046.48;1823243;78;21342;-51
2021/01/16 04:30:04;;;;;;;19.85;13.68;;;;;;;-12.64;64.46;100043.61;1823148;78;21592;-52
2021/01/16 04:32:32;;;;;;;24.12;14.47;;;;;;;-12.69;64.23;100045.80;1823116;78;20961;-52
2021/01/16 04:34:59;;;;;;;18.45;10.65;;;;;;;-12.72;64.11;100048.72;1823067;78;20966;-52
2021/01/16 04:37:27;;;;;;;21.82;13.28;;;;;;;-12.80;64.07;100054.67;1822972;78;21015;-52
2021/01/16 04:39:57;;;;;;;20.50;12.95;;;;;;;-12.90;63.57;100053.77;1823044;78;22252;-51
2021/01/16 04:42:25;;;;;;;17.70;11.30;;;;;;;-13.06;63.44;100053.77;1823036;77;21024;-51
2021/01/16 04:44:53;;;;;;;19.73;13.58;;;;;;;-13.18;63.61;100056.61;1823101;78;21049;-51
2021/01/16 04:47:25;;;;;;;17.90;13.35;;;;;;;-13.30;63.74;100055.81;1795933;78;21559;-51
2021/01/16 04:49:53;;;;;;;20.15;14.25;;;;;;;-13.43;63.74;100058.21;1823148;78;21167;-51
2021/01/16 04:52:27;;;;;;;19.73;13.75;;;;;;;-13.50;63.99;100058.83;1823076;78;21193;-52
2021/01/16 04:54:55;;;;;;;21.57;13.95;;;;;;;-13.48;64.01;100066.16;1823115;78;21020;-52
2021/01/16 04:57:25;;;;;;;22.35;13.45;;;;;;;-13.53;64.13;100064.37;1823096;78;21032;-52
2021/01/16 04:59:54;;;;;;;11.68;10.58;;;;;;;-13.53;64.28;100064.37;1752915;78;21029;-51
2021/01/16 05:02:24;;;;;;;24.95;16.40;;;;;;;-13.58;64.43;100064.76;1823365;78;21056;-51
2021/01/16 05:04:52;;;;;;;22.87;14.98;;;;;;;-13.62;64.38;100065.48;1823362;78;21820;-51
2021/01/16 05:07:19;;;;;;;17.50;13.28;;;;;;;-13.63;64.13;100070.42;1770042;78;21009;-51
2021/01/16 05:09:47;;;;;;;21.95;14.55;;;;;;;-13.67;64.12;100079.56;1770444;78;20961;-51
2021/01/16 05:12:49;;;;;;;18.20;13.03;;;;;;;-13.70;64.03;100085.56;1829199;78;21021;-51
2021/01/16 05:15:27;;;;;;;16.50;12.75;;;;;;;-13.79;64.27;100091.12;1831050;78;21016;-50
2021/01/16 05:18:08;;;;;;;37.63;20.43;;;;;;;-13.83;64.57;100095.83;1831316;78;21283;-51
2021/01/16 05:20:38;;;;;;;21.00;15.90;;;;;;;-13.87;64.55;100093.53;1831418;78;21048;-51
2021/01/16 05:23:12;;;;;;;22.37;15.48;;;;;;;-13.83;64.67;100098.47;1831421;78;21408;-50
2021/01/16 05:25:53;;;;;;;28.32;16.77;;;;;;;-13.78;64.38;100095.44;1831174;78;20980;-50
2021/01/16 05:28:23;;;;;;;25.40;15.72;;;;;;;-13.88;64.35;100091.87;1831361;78;20981;-51
2021/01/16 05:31:04;;;;;;;22.42;15.20;;;;;;;-13.99;64.49;100105.44;1831515;78;21197;-50
2021/01/16 05:33:35;;;;;;;25.57;15.72;;;;;;;-14.03;64.62;100104.03;1831257;78;21264;-50
2021/01/16 05:36:08;;;;;;;23.30;13.53;;;;;;;-14.04;64.72;100103.66;1831382;78;21630;-51
2021/01/16 05:38:43;;;;;;;43.78;33.48;;;;;;;-14.08;64.72;100105.70;1831279;78;21551;-51
2021/01/16 05:41:14;;;;;;;24.25;18.50;;;;;;;-14.07;64.65;100114.47;1831218;77;21012;-51
2021/01/16 05:43:43;;;;;;;28.98;16.70;;;;;;;-14.18;64.55;100115.80;1831579;78;22299;-51
2021/01/16 05:46:15;;;;;;;24.32;15.98;;;;;;;-14.15;64.81;100122.15;1831048;78;21009;-51
2021/01/16 05:48:43;;;;;;;24.43;16.42;;;;;;;-14.12;64.52;100125.86;1831310;78;21016;-51
2021/01/16 05:51:11;;;;;;;26.60;15.90;;;;;;;-14.19;64.53;100115.44;1831247;78;21009;-51
2021/01/16 05:53:39;;;;;;;23.47;16.45;;;;;;;-14.22;64.73;100127.06;1831506;78;21428;-51
2021/01/16 05:56:07;;;;;;;26.40;16.60;;;;;;;-14.22;64.66;100128.87;1804054;78;21365;-51
2021/01/16 05:58:35;;;;;;;14.70;10.78;;;;;;;-14.22;64.75;100127.06;1803794;78;21917;-50
2021/01/16 06:01:07;;;;;;;25.35;15.83;;;;;;;-14.20;64.71;100124.30;1831231;78;20949;-51
2021/01/16 06:03:37;;;;;;;20.90;15.00;;;;;;;-14.27;64.61;100128.75;1831309;78;21025;-51
2021/01/16 06:06:12;;;;;;;29.10;16.12;;;;;;;-14.40;64.83;100121.45;1831490;78;21036;-52
2021/01/16 06:08:52;;;;;;;28.23;16.35;;;;;;;-14.44;64.84;100127.92;1831378;78;21358;-52
2021/01/16 06:11:21;;;;;;;35.15;18.52;;;;;;;-14.47;65.01;100130.31;1829155;78;20997;-51
2021/01/16 06:13:50;;;;;;;33.88;20.30;;;;;;;-14.44;65.03;100141.94;1823229;78;21535;-52
2021/01/16 06:16:19;;;;;;;21.62;15.63;;;;;;;-14.38;64.63;100141.95;1823266;78;21271;-51
2021/01/16 06:18:57;;;;;;;20.75;14.47;;;;;;;-14.40;64.00;100147.84;1823388;78;21524;-51
2021/01/16 06:21:27;;;;;;;23.42;17.32;;;;;;;-14.49;63.80;100148.04;1795849;78;21189;-51
2021/01/16 06:23:58;;;;;;;27.95;18.25;;;;;;;-14.57;63.88;100161.00;1823285;78;21567;-51
2021/01/16 06:26:26;;;;;;;25.65;15.43;;;;;;;-14.69;63.48;100160.65;1822982;78;21052;-51
2021/01/16 06:29:02;;;;;;;21.45;15.70;;;;;;;-14.74;64.02;100158.37;1823262;78;21028;-51
2021/01/16 06:31:31;;;;;;;26.23;17.60;;;;;;;-14.73;63.38;100164.47;1823367;78;21124;-51
2021/01/16 06:34:01;;;;;;;26.60;15.32;;;;;;;-14.78;63.20;100170.93;1823203;78;21181;-51
2021/01/16 06:36:32;;;;;;;22.32;14.68;;;;;;;-14.75;63.18;100171.67;1822928;78;21001;-51
2021/01/16 06:39:04;;;;;;;20.70;13.28;;;;;;;-14.77;62.90;100166.52;1823216;78;21016;-51
2021/01/16 06:41:35;;;;;;;27.17;18.12;;;;;;;-14.79;62.62;100167.09;1823073;77;20989;-52
2021/01/16 06:44:13;;;;;;;24.35;13.20;;;;;;;-14.83;62.35;100172.23;1822933;78;21064;-52
2021/01/16 06:46:48;;;;;;;25.37;13.60;;;;;;;-14.83;62.29;100172.23;1823422;78;21354;-50
2021/01/16 06:49:28;;;;;;;25.05;15.83;;;;;;;-14.85;62.64;100174.16;1823335;78;21040;-51
2021/01/16 06:52:00;;;;;;;26.57;14.98;;;;;;;-14.88;62.46;100180.50;1822763;78;21033;-50
2021/01/16 06:54:33;;;;;;;26.57;14.63;;;;;;;-14.76;61.97;100183.99;1823278;78;21548;-50
2021/01/16 06:57:10;;;;;;;18.57;12.23;;;;;;;-14.59;61.50;100185.32;1823229;78;20997;-50
2021/01/16 06:59:41;;;;;;;17.07;11.97;;;;;;;-14.53;61.13;100185.33;1823239;78;23558;-50
2021/01/16 07:02:30;;;;;;;24.50;17.35;;;;;;;-14.61;60.97;100186.76;1823119;78;20977;-51
2021/01/16 07:05:13;;;;;;;26.97;15.30;;;;;;;-14.68;61.21;100182.94;1823239;78;21021;-50
2021/01/16 07:07:51;;;;;;;22.75;12.30;;;;;;;-14.56;61.04;100206.67;1846519;76;27022;-50
2021/01/16 07:10:23;;;;;;;9.55;8.63;;;;;;;-14.58;60.57;100200.69;1816702;78;20990;-50
2021/01/16 07:12:52;;;;;;;28.30;19.05;;;;;;;-14.58;60.04;100204.64;1816700;79;21349;-50
2021/01/16 07:15:21;;;;;;;24.60;15.18;;;;;;;-14.68;59.90;100201.41;1816624;79;20934;-50
2021/01/16 07:17:49;;;;;;;23.15;14.68;;;;;;;-14.71;60.10;100199.00;1816738;79;20970;-50
2021/01/16 07:20:17;;;;;;;31.37;16.50;;;;;;;-14.58;60.50;100209.92;1816672;79;21579;-50
2021/01/16 07:22:44;;;;;;;26.68;20.50;;;;;;;-14.42;59.89;100213.05;1816824;79;21018;-50
2021/01/16 07:25:14;;;;;;;21.75;15.18;;;;;;;-14.29;59.58;100224.36;1816812;79;22358;-51
2021/01/16 07:27:42;;;;;;;21.07;14.13;;;;;;;-14.22;59.38;100226.52;1816711;78;20934;-51
2021/01/16 07:30:12;;;;;;;27.37;14.50;;;;;;;-14.12;59.18;100229.63;1816687;79;21016;-51
2021/01/16 07:32:46;;;;;;;25.52;17.45;;;;;;;-14.03;59.13;100237.34;1816675;79;21009;-51
2021/01/16 07:35:21;;;;;;;19.70;12.35;;;;;;;-13.88;58.80;100230.50;1815974;77;20966;-51
2021/01/16 07:37:54;;;;;;;25.50;13.40;;;;;;;-13.78;58.26;100226.16;1756961;81;21161;-52
2021/01/16 07:40:28;;;;;;;26.87;15.40;;;;;;;-13.83;57.91;100227.00;1783792;80;21069;-51
2021/01/16 07:43:04;;;;;;;28.38;16.50;;;;;;;-13.70;57.95;100225.09;1781569;80;21026;-50
2021/01/16 07:45:38;;;;;;;35.95;19.98;;;;;;;-13.44;57.91;100240.66;1780023;80;21093;-50
2021/01/16 07:48:07;;;;;;;45.28;23.22;;;;;;;-13.15;57.73;100238.75;1782888;79;21623;-50
2021/01/16 07:50:37;;;;;;;36.33;18.55;;;;;;;-12.91;57.00;100235.41;1750521;81;21267;-50
2021/01/16 07:53:09;;;;;;;31.75;19.05;;;;;;;-12.65;55.99;100237.70;1788418;79;21119;-50
2021/01/16 07:55:43;;;;;;;22.65;15.70;;;;;;;-12.62;55.59;100244.06;1757040;79;21064;-49
2021/01/16 07:58:35;;;;;;;30.17;14.73;;;;;;;-12.63;54.70;100246.84;1762795;81;21057;-50
2021/01/16 08:01:17;;;;;;;39.48;19.17;;;;;;;-12.58;54.75;100253.42;1745981;80;21034;-52
2021/01/16 08:04:24;;;;;;;28.32;16.77;;;;;;;-12.58;55.03;100247.30;1751156;80;21679;-49
2021/01/16 08:07:06;;;;;;;28.30;16.42;;;;;;;-12.39;55.03;100249.23;1758692;79;28697;-51
2021/01/16 08:09:51;;;;;;;24.92;15.05;;;;;;;-12.20;54.75;100246.72;1792741;79;21049;-52
2021/01/16 08:12:24;;;;;;;28.95;14.70;;;;;;;-12.04;54.13;100251.54;1759595;81;21046;-50
2021/01/16 08:14:52;;;;;;;24.60;16.32;;;;;;;-11.99;53.49;100252.45;1746036;80;21052;-49
2021/01/16 08:17:29;;;;;;;16.70;12.63;;;;;;;-11.86;53.22;100258.37;1759885;81;21407;-49
2021/01/16 08:20:27;;;;;;;21.07;13.62;;;;;;;-11.58;52.77;100257.28;1768327;80;21046;-49
2021/01/16 08:22:54;;;;;;;26.75;18.20;;;;;;;-11.39;52.10;100254.34;1782247;80;21112;-50
2021/01/16 08:25:29;;;;;;;24.32;15.32;;;;;;;-11.38;51.97;100253.38;1764424;79;20934;-50
2021/01/16 08:28:02;;;;;;;20.40;14.60;;;;;;;-11.54;52.04;100261.34;1742903;81;21287;-50
2021/01/16 08:30:34;;;;;;;28.05;16.42;;;;;;;-11.43;51.66;100260.88;1781637;79;21199;-49
2021/01/16 08:33:12;;;;;;;24.00;14.28;;;;;;;-11.53;51.21;100262.17;1809850;77;20983;-50
2021/01/16 08:35:43;;;;;;;31.12;17.10;;;;;;;-11.46;51.44;100261.98;1744738;80;22118;-50
2021/01/16 08:38:22;;;;;;;23.90;15.13;;;;;;;-11.29;51.49;100251.22;1750612;79;20962;-51
2021/01/16 08:41:03;;;;;;;32.63;18.90;;;;;;;-11.02;51.04;100255.88;1757195;81;20986;-51
2021/01/16 08:43:36;;;;;;;30.12;17.65;;;;;;;-11.08;50.16;100258.27;1744493;80;21225;-52
2021/01/16 08:46:21;;;;;;;31.33;15.68;;;;;;;-11.26;50.04;100248.30;1758367;81;21028;-51
2021/01/16 08:49:17;;;;;;;15.53;10.85;;;;;;;-11.27;50.33;100251.94;1747402;80;21010;-51
2021/01/16 08:51:51;;;;;;;27.62;14.10;;;;;;;-11.27;50.04;100253.73;1760783;81;21008;-50
2021/01/16 08:54:23;;;;;;;26.52;14.35;;;;;;;-11.25;50.44;100242.02;1744976;82;20947;-51
2021/01/16 08:57:01;;;;;;;29.57;15.68;;;;;;;-11.12;49.97;100254.56;1747332;80;21299;-50
2021/01/16 08:59:33;;;;;;;26.15;15.10;;;;;;;-11.07;50.20;100254.14;1759276;79;21112;-51
2021/01/16 09:02:13;;;;;;;103.05;43.08;;;;;;;-10.99;50.17;100250.79;1746757;80;21007;-50
2021/01/16 09:04:43;;;;;;;54.30;26.75;;;;;;;-10.87;50.30;100249.69;1751009;79;22193;-51
2021/01/16 09:07:22;;;;;;;34.67;19.17;;;;;;;-10.65;50.54;100251.72;1810247;77;21047;-51
2021/01/16 09:09:59;;;;;;;29.27;16.90;;;;;;;-10.23;50.42;100251.85;1809687;77;21327;-52
2021/01/16 09:12:40;;;;;;;54.20;29.10;;;;;;;-9.96;49.16;100256.40;1805352;79;27461;-50
2021/01/16 09:15:24;;;;;;;279.43;130.82;;;;;;;-10.17;48.92;100249.47;1746492;80;20998;-51
2021/01/16 09:18:12;;;;;;;97.72;45.88;;;;;;;-10.26;49.41;100251.17;1776503;79;20983;-52
2021/01/16 09:20:59;;;;;;;52.45;30.27;;;;;;;-10.45;48.81;100243.25;1757393;79;21005;-52
2021/01/16 09:23:37;;;;;;;386.48;177.62;;;;;;;-10.72;49.39;100238.66;1747258;80;21814;-51
2021/01/16 09:26:10;;;;;;;255.55;99.67;;;;;;;-10.87;49.41;100238.22;1759157;79;21676;-51
2021/01/16 09:28:42;;;;;;;49.48;26.37;;;;;;;-11.04;49.81;100247.73;1743820;80;20992;-51
2021/01/16 09:31:34;;;;;;;70.47;36.65;;;;;;;-11.29;49.75;100239.29;1759108;79;21056;-50
2021/01/16 09:34:14;;;;;;;54.83;27.37;;;;;;;-11.43;50.16;100251.61;1754154;79;20987;-51
2021/01/16 09:37:00;;;;;;;43.98;23.12;;;;;;;-11.28;49.90;100250.75;1807291;79;21295;-51
2021/01/16 09:39:33;;;;;;;81.05;43.00;;;;;;;-11.16;49.72;100245.20;1805600;79;21000;-52
2021/01/16 09:42:19;;;;;;;39.88;25.08;;;;;;;-11.14;49.53;100243.23;1801866;79;21126;-50
2021/01/16 09:44:56;;;;;;;104.17;68.40;;;;;;;-11.01;49.30;100240.81;1806284;77;21635;-50
2021/01/16 09:47:32;;;;;;;109.12;82.92;;;;;;;-10.88;48.99;100237.89;1803714;79;20960;-51
2021/01/16 09:50:06;;;;;;;;;;;;;;;-10.60;48.64;100238.38;1750189;81;21394;-51
2021/01/16 09:52:33;;;;;;;83.07;54.65;;;;;;;-10.43;49.02;100244.79;1760832;81;20170;-51
2021/01/16 09:55:02;;;;;;;58.58;37.28;;;;;;;-10.32;48.79;100240.27;1803744;77;21040;-51
2021/01/16 09:57:38;;;;;;;61.75;39.25;;;;;;;-10.12;48.47;100236.58;1746051;80;21053;-50
2021/01/16 10:00:15;;;;;;;;;;;;;;;-9.71;48.29;100235.49;1765669;80;21049;-50
2021/01/16 10:02:43;;;;;;;;;;;;;;;-9.18;47.65;100239.28;1767942;79;21368;-51
2021/01/16 10:05:31;;;;;;;49.35;32.20;;;;;;;-9.04;46.76;100239.59;1761255;79;20196;-51
2021/01/16 10:07:59;;;;;;;68.25;37.33;;;;;;;-9.02;46.65;100233.28;1756410;80;21039;-51
2021/01/16 10:10:27;;;;;;;135.07;79.27;;;;;;;-9.05;46.56;100243.23;1806134;78;20961;-52
2021/01/16 10:12:59;;;;;;;44.20;26.85;;;;;;;-9.27;45.33;100241.02;1757130;80;21069;-51
2021/01/16 10:15:30;;;;;;;58.75;38.80;;;;;;;-9.40;45.74;100236.02;1759943;80;22311;-50
2021/01/16 10:17:59;;;;;;;66.40;42.15;;;;;;;-9.25;46.07;100236.36;1810322;78;20969;-52
2021/01/16 10:20:34;;;;;;;73.83;53.20;;;;;;;-8.82;45.66;100227.33;1800801;78;20966;-52
2021/01/16 10:23:07;;;;;;;58.75;40.85;;;;;;;-8.53;44.98;100231.05;1806408;78;21041;-52
2021/01/16 10:25:40;;;;;;;55.25;36.48;;;;;;;-8.30;45.18;100231.88;1758539;79;21039;-51
2021/01/16 10:28:14;;;;;;;50.63;29.65;;;;;;;-7.91;44.96;100232.81;1769007;79;22524;-50
2021/01/16 10:30:58;;;;;;;35.90;26.40;;;;;;;-7.47;44.84;100228.19;1782967;78;21113;-50
2021/01/16 10:33:25;;;;;;;30.57;20.23;;;;;;;-7.07;43.25;100227.63;1791888;78;21007;-50
2021/01/16 10:36:05;;;;;;;31.07;19.95;;;;;;;-6.77;42.80;100227.54;1735054;81;21311;-51
2021/01/16 10:38:44;;;;;;;31.42;16.77;;;;;;;-6.47;42.00;100229.23;1788651;78;20962;-50
2021/01/16 10:41:14;;;;;;;26.93;17.45;;;;;;;-6.18;41.74;100229.22;1755345;79;21203;-51
2021/01/16 10:43:42;;;;;;;28.32;17.92;;;;;;;-5.78;40.83;100224.23;1756834;80;21073;-50
2021/01/16 10:46:29;;;;;;;25.92;16.73;;;;;;;-5.42;40.20;100214.41;1778342;78;20971;-50
2021/01/16 10:48:53;;;;;;;25.75;16.17;;;;;;;-5.28;39.38;100217.38;1756890;79;21073;-53
2021/01/16 10:51:23;;;;;;;25.68;17.32;;;;;;;-5.21;39.24;100227.20;1729260;80;21055;-51
2021/01/16 10:53:55;;;;;;;21.65;15.43;;;;;;;-5.03;39.32;100222.08;1754103;80;21205;-52
2021/01/16 10:56:26;;;;;;;26.23;16.17;;;;;;;-5.22;38.48;100215.33;1759258;81;21179;-53
2021/01/16 10:59:09;;;;;;;24.92;15.40;;;;;;;-6.00;39.01;100213.81;1757171;79;21046;-53
2021/01/16 11:01:48;;;;;;;38.73;22.02;;;;;;;-6.67;40.52;100211.33;1757264;80;21034;-52
2021/01/16 11:04:28;;;;;;;30.85;18.27;;;;;;;-7.30;41.55;100218.41;1799698;78;21068;-51
2021/01/16 11:06:59;;;;;;;33.78;23.95;;;;;;;-7.59;41.50;100217.45;1798968;78;22185;-50
2021/01/16 11:09:40;;;;;;;27.90;15.58;;;;;;;-7.85;41.39;100211.66;1799874;77;20967;-51
2021/01/16 11:12:08;;;;;;;33.53;18.98;;;;;;;-7.68;41.68;100217.09;1738301;80;21046;-51
2021/01/16 11:14:39;;;;;;;40.28;19.55;;;;;;;-7.04;41.87;100210.80;1762730;79;21031;-54
2021/01/16 11:17:11;;;;;;;35.65;18.77;;;;;;;-6.32;42.18;100210.16;1766590;79;21069;-52
2021/01/16 11:19:44;;;;;;;37.83;22.80;;;;;;;-5.68;41.44;100213.34;1802378;77;22216;-51
2021/01/16 11:22:16;;;;;;;37.50;23.60;;;;;;;-5.14;39.72;100217.14;1742373;80;21368;-53
2021/01/16 11:25:10;;;;;;;32.20;21.27;;;;;;;-4.75;39.82;100210.34;1764744;79;21608;-52
2021/01/16 11:27:38;;;;;;;32.15;19.12;;;;;;;-4.34;39.04;100207.86;1758952;79;21085;-51
2021/01/16 11:30:17;;;;;;;47.48;35.78;;;;;;;-4.12;37.41;100209.34;1760527;79;21037;-52
2021/01/16 11:32:44;;;;;;;34.48;20.57;;;;;;;-4.15;37.18;100209.19;1762239;79;21333;-52
2021/01/16 11:35:13;;;;;;;31.57;17.70;;;;;;;-4.23;37.23;100203.89;1746550;82;20999;-51